Time;durP1;ratioP1;P1;durP2;ratioP2;P2;SDS_P1;SDS_P2;PMS_P1;PMS_P2;Temp;Humidity;BMP_temperature;BMP_pressure;BME280_temperature;BME280_humidity;BME280_pressure;Samples;Min_cycle;Max_cycle;Signal;HPM_P1;HPM_P2
2023/03/29 00:01:17;;;;;;;0.20;0.10;;;;;;;;;;5005210;28;20063;-79
2023/03/29 00:03:44;;;;;;;0.20;0.10;;;;;;;;;;5026291;28;20045;-79
2023/03/29 00:06:14;;;;;;;0.20;0.10;;;;;;;;;;5030050;28;20120;-80
2023/03/29 00:08:41;;;;;;;0.20;0.10;;;;;;;;;;5012720;28;20045;-79
2023/03/29 00:11:07;;;;;;;0.20;0.10;;;;;;;;;;5020147;28;20119;-79
2023/03/29 00:13:33;;;;;;;0.20;0.10;;;;;;;;;;5032433;28;20043;-78
2023/03/29 00:15:59;;;;;;;0.20;0.10;;;;;;;;;;5015157;28;20048;-79
2023/03/29 00:18:25;;;;;;;0.20;0.10;;;;;;;;;;5029609;28;20549;-79
2023/03/29 00:20:55;;;;;;;0.20;0.10;;;;;;;;;;5029293;28;20037;-79
2023/03/29 00:23:21;;;;;;;0.20;0.10;;;;;;;;;;5039663;28;20108;-79
2023/03/29 00:25:47;;;;;;;0.20;0.10;;;;;;;;;;5037588;28;20044;-79
2023/03/29 00:28:14;;;;;;;0.20;0.10;;;;;;;;;;5033016;28;20034;-78
2023/03/29 00:30:40;;;;;;;0.20;0.10;;;;;;;;;;5018586;28;20044;-79
2023/03/29 00:33:06;;;;;;;0.20;0.10;;;;;;;;;;5017629;28;20071;-80
2023/03/29 00:35:32;;;;;;;0.20;0.10;;;;;;;;;;5035401;28;20029;-79
2023/03/29 00:37:58;;;;;;;0.20;0.10;;;;;;;;;;5022908;28;20047;-78
2023/03/29 00:40:24;;;;;;;0.20;0.10;;;;;;;;;;5024958;28;20080;-78
2023/03/29 00:42:50;;;;;;;0.20;0.10;;;;;;;;;;5012472;28;20127;-79
2023/03/29 00:45:21;;;;;;;0.20;0.10;;;;;;;;;;5030795;28;20127;-78
2023/03/29 00:47:55;;;;;;;0.28;0.28;;;;;;;;;;5033752;28;20044;-79
2023/03/29 00:50:25;;;;;;;0.30;0.30;;;;;;;;;;5031808;28;20040;-80
2023/03/29 00:52:54;;;;;;;0.20;0.10;;;;;;;;;;5010475;28;20132;-79
2023/03/29 00:55:22;;;;;;;0.20;0.10;;;;;;;;;;5030897;28;20041;-78
2023/03/29 00:57:51;;;;;;;0.20;0.10;;;;;;;;;;5010476;28;20106;-80
2023/03/29 01:00:19;;;;;;;0.20;0.20;;;;;;;;;;5027880;28;20114;-78
2023/03/29 01:02:49;;;;;;;0.20;0.10;;;;;;;;;;5015637;28;20136;-79
2023/03/29 01:05:42;;;;;;;0.20;0.10;;;;;;;;;;5010117;28;20056;-78
2023/03/29 01:08:36;;;;;;;0.20;0.10;;;;;;;;;;5007290;28;20796;-79
2023/03/29 01:11:17;;;;;;;0.20;0.10;;;;;;;;;;5015135;28;20060;-79
2023/03/29 01:13:46;;;;;;;0.20;0.10;;;;;;;;;;5016654;28;20124;-78
2023/03/29 01:16:13;;;;;;;1.48;0.63;;;;;;;;;;5031332;28;20040;-78
2023/03/29 01:18:40;;;;;;;0.20;0.10;;;;;;;;;;5028557;28;20257;-78
2023/03/29 01:21:13;;;;;;;0.20;0.10;;;;;;;;;;5016176;28;20049;-79
2023/03/29 01:23:42;;;;;;;0.20;0.20;;;;;;;;;;5016509;28;21452;-78
2023/03/29 01:26:18;;;;;;;0.20;0.17;;;;;;;;;;5029994;28;20079;-78
2023/03/29 01:28:56;;;;;;;0.20;0.10;;;;;;;;;;5014305;28;20037;-79
2023/03/29 01:31:24;;;;;;;0.20;0.10;;;;;;;;;;5027652;28;20059;-78
2023/03/29 01:33:53;;;;;;;0.20;0.10;;;;;;;;;;5024783;28;20037;-79
2023/03/29 01:36:36;;;;;;;0.20;0.10;;;;;;;;;;5008284;28;20050;-79
2023/03/29 01:39:04;;;;;;;0.20;0.10;;;;;;;;;;5026590;28;20203;-79
2023/03/29 01:41:46;;;;;;;0.20;0.10;;;;;;;;;;5026049;28;20111;-78
2023/03/29 01:44:16;;;;;;;0.20;0.10;;;;;;;;;;5029074;28;20588;-78
2023/03/29 01:46:47;;;;;;;0.20;0.13;;;;;;;;;;5023585;28;20574;-81
2023/03/29 01:49:21;;;;;;;0.20;0.10;;;;;;;;;;5026679;28;20045;-78
2023/03/29 01:52:07;;;;;;;0.20;0.10;;;;;;;;;;5032193;28;20095;-78
2023/03/29 01:54:40;;;;;;;0.20;0.10;;;;;;;;;;5034035;28;20482;-78
2023/03/29 01:57:09;;;;;;;0.20;0.10;;;;;;;;;;5035822;28;20075;-79
2023/03/29 01:59:36;;;;;;;0.30;0.20;;;;;;;;;;5025533;28;20041;-79
2023/03/29 02:02:05;;;;;;;0.20;0.10;;;;;;;;;;5032928;28;20050;-78
2023/03/29 02:04:36;;;;;;;0.20;0.10;;;;;;;;;;5034290;28;20127;-79
2023/03/29 02:07:04;;;;;;;2.17;0.38;;;;;;;;;;5029688;28;22004;-78
2023/03/29 02:09:31;;;;;;;0.20;0.10;;;;;;;;;;5033682;28;20072;-78
2023/03/29 02:11:59;;;;;;;0.20;0.15;;;;;;;;;;5013691;28;20446;-78
2023/03/29 02:14:26;;;;;;;0.20;0.15;;;;;;;;;;5018851;28;20118;-79
2023/03/29 02:16:52;;;;;;;0.20;0.10;;;;;;;;;;5013548;28;20037;-78
2023/03/29 02:19:19;;;;;;;0.80;0.80;;;;;;;;;;5017179;28;20055;-79
2023/03/29 02:21:50;;;;;;;1.05;0.30;;;;;;;;;;5032218;28;20049;-78
2023/03/29 02:24:17;;;;;;;0.20;0.10;;;;;;;;;;5024725;28;20068;-79
2023/03/29 02:26:43;;;;;;;0.20;0.10;;;;;;;;;;5025549;28;20645;-79
2023/03/29 02:29:09;;;;;;;0.20;0.10;;;;;;;;;;5009596;28;20041;-78
2023/03/29 02:31:49;;;;;;;0.20;0.10;;;;;;;;;;5019450;28;20051;-78
2023/03/29 02:34:19;;;;;;;0.20;0.20;;;;;;;;;;5040510;28;20543;-79
2023/03/29 02:36:49;;;;;;;0.22;0.20;;;;;;;;;;5041172;28;20036;-78
2023/03/29 02:39:15;;;;;;;0.20;0.10;;;;;;;;;;5039600;28;20045;-77
2023/03/29 02:41:43;;;;;;;0.20;0.10;;;;;;;;;;5016097;28;20098;-80
2023/03/29 02:44:13;;;;;;;0.20;0.20;;;;;;;;;;5027467;28;20049;-79
2023/03/29 02:46:42;;;;;;;0.20;0.10;;;;;;;;;;5026938;28;20697;-79
2023/03/29 02:49:09;;;;;;;0.32;0.22;;;;;;;;;;5011404;28;20045;-79
2023/03/29 02:51:36;;;;;;;0.20;0.10;;;;;;;;;;5030476;28;20065;-79
2023/03/29 02:54:11;;;;;;;0.20;0.10;;;;;;;;;;5024401;28;20076;-78
2023/03/29 02:56:46;;;;;;;0.32;0.32;;;;;;;;;;5036654;28;20041;-78
2023/03/29 02:59:12;;;;;;;0.20;0.10;;;;;;;;;;5019979;28;20532;-77
2023/03/29 03:01:41;;;;;;;0.20;0.10;;;;;;;;;;5035635;28;20048;-79
2023/03/29 03:04:08;;;;;;;0.20;0.10;;;;;;;;;;5017363;28;21939;-78
2023/03/29 03:06:35;;;;;;;0.20;0.10;;;;;;;;;;5021137;28;20048;-78
2023/03/29 03:09:03;;;;;;;0.20;0.10;;;;;;;;;;5037937;28;20025;-78
2023/03/29 03:11:29;;;;;;;0.20;0.10;;;;;;;;;;5044291;28;20099;-80
2023/03/29 03:13:55;;;;;;;0.20;0.20;;;;;;;;;;5027880;28;20037;-79
2023/03/29 03:16:22;;;;;;;0.20;0.10;;;;;;;;;;5030588;28;20653;-78
2023/03/29 03:18:50;;;;;;;0.20;0.20;;;;;;;;;;5030931;28;20461;-78
2023/03/29 03:21:16;;;;;;;0.20;0.10;;;;;;;;;;5031462;28;20039;-79
2023/03/29 03:23:44;;;;;;;0.82;0.28;;;;;;;;;;5010393;28;20033;-79
2023/03/29 03:26:10;;;;;;;0.43;0.43;;;;;;;;;;5011239;28;20045;-79
2023/03/29 03:28:36;;;;;;;0.63;0.30;;;;;;;;;;5012629;28;20054;-78
2023/03/29 03:31:02;;;;;;;0.20;0.10;;;;;;;;;;5010015;28;20046;-78
2023/03/29 03:33:29;;;;;;;0.20;0.20;;;;;;;;;;5032270;28;20060;-79
2023/03/29 03:35:55;;;;;;;0.20;0.10;;;;;;;;;;5029423;28;20413;-78
2023/03/29 03:38:22;;;;;;;0.20;0.20;;;;;;;;;;5017263;28;20045;-78
2023/03/29 03:40:55;;;;;;;0.20;0.10;;;;;;;;;;5032240;28;20129;-78
2023/03/29 03:43:21;;;;;;;0.20;0.10;;;;;;;;;;5007237;28;20496;-78
2023/03/29 03:45:47;;;;;;;0.20;0.15;;;;;;;;;;5028254;28;20523;-78
2023/03/29 03:48:13;;;;;;;0.20;0.10;;;;;;;;;;5016966;28;20490;-79
2023/03/29 03:50:39;;;;;;;0.20;0.10;;;;;;;;;;5031642;28;21483;-78
2023/03/29 03:53:06;;;;;;;0.20;0.10;;;;;;;;;;5029853;28;20064;-78
2023/03/29 03:55:32;;;;;;;0.20;0.10;;;;;;;;;;5014477;28;20056;-78
2023/03/29 03:57:58;;;;;;;1.27;0.57;;;;;;;;;;5026594;28;20091;-77
2023/03/29 04:00:25;;;;;;;0.20;0.10;;;;;;;;;;5027537;28;20051;-76
2023/03/29 04:02:53;;;;;;;0.20;0.10;;;;;;;;;;5019847;28;20323;-76
2023/03/29 04:05:19;;;;;;;0.20;0.10;;;;;;;;;;5024839;28;20043;-76
2023/03/29 04:07:45;;;;;;;0.20;0.13;;;;;;;;;;5017474;28;20497;-77
2023/03/29 04:10:12;;;;;;;0.20;0.20;;;;;;;;;;5028071;28;20045;-76
2023/03/29 04:12:38;;;;;;;0.20;0.10;;;;;;;;;;5023133;28;20037;-77
2023/03/29 04:15:05;;;;;;;0.20;0.10;;;;;;;;;;5029791;28;20541;-76
2023/03/29 04:17:31;;;;;;;0.20;0.10;;;;;;;;;;5008466;28;20586;-77
2023/03/29 04:20:00;;;;;;;0.20;0.10;;;;;;;;;;5008472;28;20045;-77
2023/03/29 04:22:26;;;;;;;0.30;0.30;;;;;;;;;;5004604;28;22465;-76
2023/03/29 04:24:52;;;;;;;0.20;0.15;;;;;;;;;;5020003;28;20045;-77
2023/03/29 04:27:18;;;;;;;0.20;0.10;;;;;;;;;;5020278;28;20041;-77
2023/03/29 04:29:44;;;;;;;0.52;0.52;;;;;;;;;;5018282;28;20041;-77
2023/03/29 04:32:11;;;;;;;0.20;0.10;;;;;;;;;;5006520;28;20508;-77
2023/03/29 04:34:37;;;;;;;0.20;0.10;;;;;;;;;;5009335;28;20129;-78
2023/03/29 04:37:09;;;;;;;0.20;0.10;;;;;;;;;;5027093;28;20041;-77
2023/03/29 04:39:38;;;;;;;0.45;0.35;;;;;;;;;;5017547;28;20437;-77
2023/03/29 04:42:04;;;;;;;0.20;0.10;;;;;;;;;;5016528;28;20124;-77
2023/03/29 04:44:33;;;;;;;0.30;0.20;;;;;;;;;;5012355;28;20053;-77
2023/03/29 04:47:00;;;;;;;0.43;0.35;;;;;;;;;;5019039;28;20073;-77
2023/03/29 04:49:26;;;;;;;0.20;0.10;;;;;;;;;;5015547;28;20037;-77
2023/03/29 04:51:53;;;;;;;0.20;0.10;;;;;;;;;;5002977;28;22027;-77
2023/03/29 04:54:19;;;;;;;0.30;0.28;;;;;;;;;;5007261;28;20038;-77
2023/03/29 04:56:45;;;;;;;0.20;0.10;;;;;;;;;;5012685;28;20036;-77
2023/03/29 04:59:11;;;;;;;0.20;0.17;;;;;;;;;;5010536;28;20076;-77
2023/03/29 05:01:38;;;;;;;0.20;0.10;;;;;;;;;;5014193;28;20531;-76
2023/03/29 05:04:04;;;;;;;0.20;0.10;;;;;;;;;;5010299;28;20060;-78
2023/03/29 05:06:30;;;;;;;0.73;0.47;;;;;;;;;;5022107;28;20045;-77
2023/03/29 05:08:56;;;;;;;0.20;0.13;;;;;;;;;;5009955;28;20033;-77
2023/03/29 05:11:24;;;;;;;0.20;0.10;;;;;;;;;;5006350;28;20148;-78
2023/03/29 05:13:50;;;;;;;0.20;0.20;;;;;;;;;;5010246;28;21457;-77
2023/03/29 05:16:16;;;;;;;0.20;0.20;;;;;;;;;;5028944;28;20033;-78
2023/03/29 05:18:42;;;;;;;0.20;0.10;;;;;;;;;;5033551;28;20079;-77
2023/03/29 05:21:08;;;;;;;0.20;0.10;;;;;;;;;;5029308;28;20091;-79
2023/03/29 05:23:35;;;;;;;0.35;0.28;;;;;;;;;;5006771;28;20049;-77
2023/03/29 05:26:01;;;;;;;0.20;0.10;;;;;;;;;;5030225;28;20115;-77
2023/03/29 05:28:27;;;;;;;0.20;0.10;;;;;;;;;;5011594;28;20040;-79
2023/03/29 05:31:04;;;;;;;0.20;0.20;;;;;;;;;;5013595;28;20056;-78
2023/03/29 05:33:30;;;;;;;0.95;0.60;;;;;;;;;;5031363;28;20044;-77
2023/03/29 05:36:03;;;;;;;0.20;0.10;;;;;;;;;;5035720;28;20529;-78
2023/03/29 05:38:31;;;;;;;0.30;0.30;;;;;;;;;;5067456;22;20621;-78
2023/03/29 05:40:58;;;;;;;0.20;0.10;;;;;;;;;;5047627;28;20051;-78
2023/03/29 05:43:25;;;;;;;0.30;0.30;;;;;;;;;;5077995;28;20061;-79
2023/03/29 05:45:54;;;;;;;1.58;1.48;;;;;;;;;;5055364;28;20047;-77
2023/03/29 05:48:21;;;;;;;0.45;0.30;;;;;;;;;;5072451;28;20075;-79
2023/03/29 05:50:52;;;;;;;0.20;0.10;;;;;;;;;;5038961;28;20047;-77
2023/03/29 05:53:19;;;;;;;0.20;0.10;;;;;;;;;;5057004;28;20205;-79
2023/03/29 05:55:46;;;;;;;0.20;0.10;;;;;;;;;;5062764;28;20040;-79
2023/03/29 05:58:12;;;;;;;0.20;0.10;;;;;;;;;;5046087;28;20068;-78
2023/03/29 06:00:39;;;;;;;0.30;0.30;;;;;;;;;;5055731;28;20146;-78
2023/03/29 06:03:06;;;;;;;0.20;0.10;;;;;;;;;;5062561;28;20040;-80
2023/03/29 06:05:32;;;;;;;0.20;0.10;;;;;;;;;;5059780;28;20045;-79
2023/03/29 06:07:59;;;;;;;0.20;0.10;;;;;;;;;;5050041;28;20037;-79
2023/03/29 06:10:25;;;;;;;0.20;0.10;;;;;;;;;;5039317;28;20298;-80
2023/03/29 06:12:51;;;;;;;0.25;0.13;;;;;;;;;;5062614;28;20404;-79
2023/03/29 06:15:17;;;;;;;0.20;0.10;;;;;;;;;;5061380;28;20120;-78
2023/03/29 06:17:44;;;;;;;0.20;0.20;;;;;;;;;;5058945;28;20503;-79
2023/03/29 06:20:11;;;;;;;0.20;0.10;;;;;;;;;;5071249;28;20052;-78
2023/03/29 06:22:37;;;;;;;0.20;0.10;;;;;;;;;;5047116;28;20123;-79
2023/03/29 06:25:04;;;;;;;0.20;0.10;;;;;;;;;;5073484;28;20112;-78
2023/03/29 06:27:31;;;;;;;0.20;0.10;;;;;;;;;;5069904;28;20521;-80
2023/03/29 06:29:58;;;;;;;0.20;0.10;;;;;;;;;;5055627;28;20404;-79
2023/03/29 06:32:24;;;;;;;0.30;0.30;;;;;;;;;;5045863;28;20569;-80
2023/03/29 06:34:50;;;;;;;0.20;0.15;;;;;;;;;;5042536;28;20481;-79
2023/03/29 06:37:16;;;;;;;0.20;0.10;;;;;;;;;;5060226;28;20091;-79
2023/03/29 06:39:42;;;;;;;0.20;0.10;;;;;;;;;;5060273;28;20048;-79
2023/03/29 06:42:09;;;;;;;0.30;0.30;;;;;;;;;;5056789;28;20573;-80
2023/03/29 06:44:36;;;;;;;0.20;0.10;;;;;;;;;;5051479;28;20040;-82
2023/03/29 06:47:03;;;;;;;0.20;0.15;;;;;;;;;;5057019;28;20048;-80
2023/03/29 06:49:29;;;;;;;0.20;0.10;;;;;;;;;;5054344;28;20055;-82
2023/03/29 06:51:55;;;;;;;0.20;0.10;;;;;;;;;;5061215;28;20040;-80
2023/03/29 06:54:21;;;;;;;0.20;0.10;;;;;;;;;;5036397;28;20481;-81
2023/03/29 06:56:48;;;;;;;0.20;0.10;;;;;;;;;;5058337;28;20032;-81
2023/03/29 06:59:14;;;;;;;0.20;0.10;;;;;;;;;;5056927;28;20501;-79
2023/03/29 07:01:41;;;;;;;0.50;0.40;;;;;;;;;;5058852;28;20103;-79
2023/03/29 07:04:08;;;;;;;0.68;0.30;;;;;;;;;;5054316;28;20048;-79
2023/03/29 07:06:35;;;;;;;0.20;0.10;;;;;;;;;;5055705;28;20532;-81
2023/03/29 07:09:05;;;;;;;0.38;0.15;;;;;;;;;;5055023;28;20041;-81
2023/03/29 07:11:34;;;;;;;0.20;0.10;;;;;;;;;;5059904;28;20536;-80
2023/03/29 07:14:01;;;;;;;0.20;0.10;;;;;;;;;;5060063;28;20121;-81
2023/03/29 07:16:27;;;;;;;0.20;0.10;;;;;;;;;;5054526;28;20047;-80
2023/03/29 07:18:53;;;;;;;0.20;0.10;;;;;;;;;;5052863;28;20051;-80
2023/03/29 07:21:19;;;;;;;0.20;0.10;;;;;;;;;;5049761;28;20112;-79
2023/03/29 07:23:46;;;;;;;0.20;0.10;;;;;;;;;;5060099;28;20033;-80
2023/03/29 07:26:12;;;;;;;0.20;0.10;;;;;;;;;;5057970;28;20141;-80
2023/03/29 07:28:38;;;;;;;0.20;0.10;;;;;;;;;;5062478;28;20044;-80
2023/03/29 07:31:05;;;;;;;0.35;0.35;;;;;;;;;;5066676;28;20100;-81
2023/03/29 07:33:32;;;;;;;0.20;0.10;;;;;;;;;;5067106;28;20045;-79
2023/03/29 07:35:58;;;;;;;0.20;0.10;;;;;;;;;;5053389;28;20036;-80
2023/03/29 07:38:24;;;;;;;0.20;0.10;;;;;;;;;;5063580;28;20036;-80
2023/03/29 07:40:50;;;;;;;0.20;0.10;;;;;;;;;;5061454;28;20044;-79
2023/03/29 07:43:17;;;;;;;0.20;0.10;;;;;;;;;;5055702;28;20041;-79
2023/03/29 07:45:43;;;;;;;0.20;0.10;;;;;;;;;;5061367;28;20089;-79
2023/03/29 07:48:09;;;;;;;0.20;0.20;;;;;;;;;;5056938;28;20057;-79
2023/03/29 07:50:35;;;;;;;0.20;0.10;;;;;;;;;;5055126;28;20044;-80
2023/03/29 07:53:02;;;;;;;0.20;0.10;;;;;;;;;;5060403;28;20074;-80
2023/03/29 07:55:28;;;;;;;0.25;0.25;;;;;;;;;;5056912;28;21077;-79
2023/03/29 07:57:54;;;;;;;0.20;0.10;;;;;;;;;;5058937;28;20087;-80
2023/03/29 08:00:21;;;;;;;0.20;0.10;;;;;;;;;;5062465;28;20250;-78
2023/03/29 08:02:49;;;;;;;0.20;0.10;;;;;;;;;;5078717;28;20048;-78
2023/03/29 08:05:16;;;;;;;0.47;0.47;;;;;;;;;;5057267;28;20048;-79
2023/03/29 08:07:43;;;;;;;0.20;0.10;;;;;;;;;;5063907;28;20048;-79
2023/03/29 08:10:14;;;;;;;0.20;0.10;;;;;;;;;;5064471;28;20073;-80
2023/03/29 08:12:40;;;;;;;0.20;0.20;;;;;;;;;;5061369;28;20167;-80
2023/03/29 08:15:07;;;;;;;0.20;0.10;;;;;;;;;;5071201;28;20120;-79
2023/03/29 08:17:35;;;;;;;0.20;0.10;;;;;;;;;;5057284;28;20052;-80
2023/03/29 08:20:02;;;;;;;0.20;0.10;;;;;;;;;;5055486;28;20264;-80
2023/03/29 08:22:29;;;;;;;0.20;0.10;;;;;;;;;;5051837;28;20087;-79
2023/03/29 08:24:55;;;;;;;0.20;0.10;;;;;;;;;;5060773;28;20055;-79
2023/03/29 08:27:21;;;;;;;1.08;0.52;;;;;;;;;;5054699;28;20041;-79
2023/03/29 08:29:47;;;;;;;0.20;0.10;;;;;;;;;;5058550;28;20036;-80
2023/03/29 08:32:14;;;;;;;0.20;0.13;;;;;;;;;;5054937;28;20534;-79
2023/03/29 08:34:40;;;;;;;0.20;0.10;;;;;;;;;;5056750;28;20041;-79
2023/03/29 08:37:08;;;;;;;0.20;0.15;;;;;;;;;;5057513;28;20079;-78
2023/03/29 08:39:34;;;;;;;0.20;0.10;;;;;;;;;;5059086;28;20665;-79
2023/03/29 08:42:25;;;;;;;0.20;0.10;;;;;;;;;;5059785;28;20048;-78
2023/03/29 08:45:00;;;;;;;0.20;0.10;;;;;;;;;;5060766;28;20509;-80
2023/03/29 08:47:47;;;;;;;0.20;0.20;;;;;;;;;;5064215;28;20036;-78
2023/03/29 08:50:13;;;;;;;0.20;0.10;;;;;;;;;;5061478;28;20047;-78
2023/03/29 08:52:42;;;;;;;0.20;0.10;;;;;;;;;;5062317;28;20400;-79
2023/03/29 08:55:13;;;;;;;0.20;0.10;;;;;;;;;;5063239;28;20044;-79
2023/03/29 08:57:41;;;;;;;0.20;0.10;;;;;;;;;;5064592;28;20045;-78
2023/03/29 09:00:13;;;;;;;0.20;0.20;;;;;;;;;;5052231;28;20069;-80
2023/03/29 09:02:40;;;;;;;0.20;0.10;;;;;;;;;;5059539;28;20138;-76
2023/03/29 09:05:26;;;;;;;0.20;0.10;;;;;;;;;;5065373;28;20520;-77
2023/03/29 09:07:53;;;;;;;0.20;0.10;;;;;;;;;;5056870;28;20032;-79
2023/03/29 09:10:21;;;;;;;0.20;0.10;;;;;;;;;;5064789;28;20048;-77
2023/03/29 09:13:00;;;;;;;0.47;0.32;;;;;;;;;;5062862;28;20067;-79
2023/03/29 09:15:47;;;;;;;0.20;0.10;;;;;;;;;;5057239;28;20116;-77
2023/03/29 09:18:38;;;;;;;0.20;0.20;;;;;;;;;;5053900;28;20047;-77
2023/03/29 09:21:08;;;;;;;0.30;0.30;;;;;;;;;;5059043;28;20100;-77
2023/03/29 09:23:40;;;;;;;0.20;0.10;;;;;;;;;;5055157;28;20047;-76
2023/03/29 09:26:12;;;;;;;0.20;0.10;;;;;;;;;;5058276;28;20041;-77
2023/03/29 09:28:42;;;;;;;0.52;0.52;;;;;;;;;;5065486;28;20037;-76
2023/03/29 09:31:16;;;;;;;0.20;0.10;;;;;;;;;;5067667;28;20123;-77
2023/03/29 09:33:55;;;;;;;0.20;0.10;;;;;;;;;;5059024;28;20243;-79
2023/03/29 09:36:29;;;;;;;0.38;0.30;;;;;;;;;;5058772;28;20505;-78
2023/03/29 09:38:58;;;;;;;0.40;0.20;;;;;;;;;;5055607;28;20041;-77
2023/03/29 09:41:36;;;;;;;0.20;0.10;;;;;;;;;;5058348;28;21852;-77
2023/03/29 09:44:08;;;;;;;0.20;0.10;;;;;;;;;;5045281;28;20044;-77
2023/03/29 09:46:38;;;;;;;0.20;0.10;;;;;;;;;;5062582;28;20043;-79
2023/03/29 09:49:10;;;;;;;0.20;0.10;;;;;;;;;;5062648;28;20310;-77
2023/03/29 09:51:38;;;;;;;0.20;0.13;;;;;;;;;;5064483;28;20093;-78
2023/03/29 09:54:04;;;;;;;0.63;0.38;;;;;;;;;;5066138;28;20096;-77
2023/03/29 09:56:31;;;;;;;0.20;0.10;;;;;;;;;;5079620;28;20065;-79
2023/03/29 09:58:57;;;;;;;0.20;0.20;;;;;;;;;;5062320;28;20071;-78
2023/03/29 10:01:24;;;;;;;0.20;0.20;;;;;;;;;;5057009;28;20454;-78
2023/03/29 10:03:52;;;;;;;0.20;0.10;;;;;;;;;;5061831;28;20052;-76
2023/03/29 10:06:19;;;;;;;0.20;0.10;;;;;;;;;;5047619;28;20047;-79
2023/03/29 10:08:48;;;;;;;0.57;0.45;;;;;;;;;;5051778;28;20064;-79
2023/03/29 10:11:22;;;;;;;0.38;0.25;;;;;;;;;;5052468;28;20464;-76
2023/03/29 10:13:50;;;;;;;0.20;0.10;;;;;;;;;;5043779;28;20056;-77
2023/03/29 10:16:21;;;;;;;0.20;0.10;;;;;;;;;;5029341;28;20706;-78
2023/03/29 10:18:49;;;;;;;0.40;0.40;;;;;;;;;;5042593;28;20484;-77
2023/03/29 10:21:16;;;;;;;0.20;0.20;;;10.80;99.90;;;;;;5049507;28;20133;-76
2023/03/29 10:23:42;;;;;;;1.17;0.52;;;9.70;99.90;;;;;;5045029;28;20043;-77
2023/03/29 10:26:14;;;;;;;0.20;0.10;;;;;;;;;;5045061;28;20048;-77
2023/03/29 10:28:40;;;;;;;0.20;0.10;;;;;;;;;;5046747;28;20045;-76
2023/03/29 10:31:06;;;;;;;2.95;0.35;;;;;;;;;;5034489;28;20041;-76
2023/03/29 10:33:34;;;;;;;1.75;1.65;;;;;;;;;;5042803;28;20051;-77
2023/03/29 10:36:02;;;;;;;4.93;0.75;;;;;;;;;;5036951;28;20354;-78
2023/03/29 10:38:29;;;;;;;0.20;0.10;;;;;;;;;;5049093;28;20128;-76
2023/03/29 10:41:02;;;;;;;0.75;0.32;;;;;;;;;;5032707;28;20070;-81
2023/03/29 10:43:34;;;;;;;0.30;0.30;;;;;;;;;;5052529;28;20040;-77
2023/03/29 10:46:16;;;;;;;0.20;0.10;;;;;;;;;;5049898;28;20131;-77
2023/03/29 10:48:45;;;;;;;0.50;0.50;;;;;;;;;;5042731;28;20052;-78
2023/03/29 10:51:13;;;;;;;0.20;0.10;;;;;;;;;;5041197;28;20341;-76
2023/03/29 10:53:39;;;;;;;0.30;0.30;;;;;;;;;;5050471;28;20037;-76
2023/03/29 10:56:06;;;;;;;0.20;0.10;;;9.60;99.90;;;;;;5036847;28;20068;-75
2023/03/29 10:58:45;;;;;;;0.43;0.20;;;10.20;99.90;;;;;;5039573;28;20052;-75
2023/03/29 11:01:17;;;;;;;0.75;0.45;;;10.20;99.90;;;;;;5044614;28;20436;-76
2023/03/29 11:04:08;;;;;;;1.65;0.73;;;10.30;99.90;;;;;;5043035;28;20068;-74
2023/03/29 11:07:00;;;;;;;0.20;0.10;;;10.30;99.90;;;;;;5044279;28;20544;-75
2023/03/29 11:09:36;;;;;;;0.20;0.20;;;10.40;99.90;;;;;;5006856;28;20107;-75
2023/03/29 11:13:01;;;;;;;0.20;0.10;;;10.50;99.90;;;;;;5047163;28;20059;-75
2023/03/29 11:15:45;;;;;;;0.32;0.32;;;10.50;99.90;;;;;;4967464;28;20514;-77
2023/03/29 11:18:59;;;;;;;0.55;0.55;;;10.60;99.90;;;;;;5042858;28;20067;-75
2023/03/29 11:21:26;;;;;;;0.20;0.10;;;;;;;;;;5044889;28;20086;-75
2023/03/29 11:24:01;;;;;;;0.20;0.10;;;;;;;;;;5044758;28;20501;-75
2023/03/29 11:26:30;;;;;;;0.20;0.20;;;;;;;;;;5048871;28;20065;-76
2023/03/29 11:29:15;;;;;;;0.30;0.30;;;;;;;;;;5070411;28;20463;-74
2023/03/29 11:32:04;;;;;;;0.20;0.10;;;;;;;;;;5040928;28;20033;-75
2023/03/29 11:34:44;;;;;;;0.22;0.20;;;;;;;;;;5035061;28;20052;-76
2023/03/29 11:37:10;;;;;;;0.30;0.30;;;;;;;;;;5047946;28;20048;-76
2023/03/29 11:39:43;;;;;;;0.40;0.30;;;;;;;;;;5073467;22;20040;-77
2023/03/29 11:42:13;;;;;;;0.25;0.15;;;;;;;;;;5047653;28;20040;-78
2023/03/29 11:44:40;;;;;;;1.75;0.98;;;;;;;;;;5039907;28;20045;-76
2023/03/29 11:47:12;;;;;;;0.55;0.38;;;;;;;;;;5038867;28;20043;-78
2023/03/29 11:49:42;;;;;;;0.40;0.40;;;;;;;;;;5044391;28;20083;-76
2023/03/29 11:52:15;;;;;;;0.93;0.22;;;;;;;;;;5035257;28;20132;-79
2023/03/29 11:55:02;;;;;;;0.40;0.40;;;;;;;;;;5039196;28;20037;-78
2023/03/29 11:57:28;;;;;;;0.28;0.28;;;;;;;;;;5038535;28;20055;-77
2023/03/29 11:59:58;;;;;;;0.20;0.20;;;;;;;;;;5034429;28;20029;-78
2023/03/29 12:02:30;;;;;;;0.20;0.10;;;;;;;;;;5044110;28;20076;-78
2023/03/29 12:04:58;;;;;;;0.30;0.20;;;;;;;;;;5035196;28;20037;-78
2023/03/29 12:07:50;;;;;;;0.40;0.40;;;;;;;;;;5034797;28;20147;-76
2023/03/29 12:10:22;;;;;;;0.20;0.10;;;;;;;;;;5028694;28;20064;-77
2023/03/29 12:13:02;;;;;;;0.20;0.13;;;;;;;;;;5034809;28;20040;-78
2023/03/29 12:15:42;;;;;;;0.30;0.30;;;;;;;;;;5019482;28;20047;-77
2023/03/29 12:18:21;;;;;;;0.20;0.10;;;;;;;;;;5015798;28;20075;-78
2023/03/29 12:20:50;;;;;;;0.20;0.20;;;;;;;;;;5018944;28;20039;-78
2023/03/29 12:23:17;;;;;;;0.20;0.20;;;;;;;;;;5032062;28;20037;-76
2023/03/29 12:26:01;;;;;;;0.20;0.10;;;;;;;;;;5017588;28;20524;-79
2023/03/29 12:28:27;;;;;;;0.47;0.35;;;;;;;;;;5039576;28;20041;-78
2023/03/29 12:30:56;;;;;;;0.40;0.20;;;;;;;;;;5021672;28;20452;-77
2023/03/29 12:33:43;;;;;;;0.20;0.10;;;;;;;;;;5043154;28;20124;-77
2023/03/29 12:36:09;;;;;;;0.20;0.13;;;;;;;;;;5023305;28;20124;-77
2023/03/29 12:38:37;;;;;;;0.20;0.20;;;;;;;;;;5038978;28;20041;-77
2023/03/29 12:41:09;;;;;;;0.20;0.20;;;;;;;;;;5016047;28;20041;-78
2023/03/29 12:43:40;;;;;;;0.25;0.20;;;;;;;;;;5023915;28;20045;-77
2023/03/29 12:46:13;;;;;;;0.40;0.28;;;;;;;;;;5034116;28;20041;-78
2023/03/29 12:48:40;;;;;;;0.20;0.10;;;;;;;;;;5020474;28;20037;-77
2023/03/29 12:51:12;;;;;;;5.05;1.85;;;;;;;;;;5014763;28;20115;-77
2023/03/29 12:53:40;;;;;;;0.30;0.20;;;;;;;;;;5036527;28;20049;-78
2023/03/29 12:56:08;;;;;;;0.30;0.22;;;;;;;;;;5021617;28;20447;-78
2023/03/29 12:58:53;;;;;;;0.38;0.35;;;;;;;;;;5039061;28;20069;-78
2023/03/29 13:01:46;;;;;;;0.50;0.50;;;;;;;;;;5022980;28;20037;-78
2023/03/29 13:04:12;;;;;;;;;;;;;;;;;;5034021;28;20063;-78
2023/03/29 13:06:47;;;;;;;0.30;0.30;;;;;;;;;;5037225;28;19916;-77
2023/03/29 13:09:36;;;;;;;0.40;0.28;;;;;;;;;;5015413;28;20046;-78
2023/03/29 13:12:05;;;;;;;0.47;0.40;;;;;;;;;;5024945;28;20067;-78
2023/03/29 13:14:34;;;;;;;0.45;0.20;;;;;;;;;;5038281;28;20041;-78
2023/03/29 13:17:04;;;;;;;0.20;0.10;;;;;;;;;;5018730;28;20074;-77
2023/03/29 13:19:33;;;;;;;0.20;0.10;;;;;;;;;;5018560;28;20076;-77
2023/03/29 13:22:07;;;;;;;0.40;0.38;;;;;;;;;;5039045;28;20723;-76
2023/03/29 13:24:36;;;;;;;0.45;0.40;;;;;;;;;;5038394;28;20461;-78
2023/03/29 13:27:03;;;;;;;0.20;0.10;;;;;;;;;;5022524;28;21316;-77
2023/03/29 13:29:29;;;;;;;0.35;0.28;;;;;;;;;;5025882;28;20405;-78
2023/03/29 13:32:06;;;;;;;0.20;0.20;;;;;;;;;;5037467;28;20040;-78
2023/03/29 13:34:35;;;;;;;0.20;0.10;;;;;;;;;;5040877;28;20420;-77
2023/03/29 13:37:01;;;;;;;0.75;0.75;;;;;;;;;;5039904;28;20099;-78
2023/03/29 13:39:31;;;;;;;0.22;0.20;;;;;;;;;;5020113;28;20041;-78
2023/03/29 13:42:21;;;;;;;0.57;0.30;;;;;;;;;;5037314;28;20087;-78
2023/03/29 13:44:50;;;;;;;0.35;0.15;;;;;;;;;;5029379;28;20048;-78
2023/03/29 13:47:25;;;;;;;0.20;0.10;;;;;;;;;;5025422;28;20109;-77
2023/03/29 13:49:53;;;;;;;0.40;0.30;;;;;;;;;;5041711;28;20053;-78
2023/03/29 13:52:26;;;;;;;0.20;0.20;;;;;;;;;;5036056;28;20036;-77
2023/03/29 13:54:55;;;;;;;0.35;0.30;;;;;;;;;;5015271;28;20060;-78
2023/03/29 13:57:24;;;;;;;0.20;0.10;;;;;;;;;;5045270;28;20044;-78
2023/03/29 13:59:59;;;;;;;2.20;0.68;;;;;;;;;;5037069;28;20041;-78
2023/03/29 14:02:43;;;;;;;0.40;0.32;;;;;;;;;;5019014;28;20083;-78
2023/03/29 14:05:11;;;;;;;0.20;0.10;;;;;;;;;;5036744;28;20049;-78
2023/03/29 14:07:38;;;;;;;0.20;0.17;;;;;;;;;;5030007;28;20044;-77
2023/03/29 14:10:05;;;;;;;0.55;0.50;;;;;;;;;;5027078;28;20048;-77
2023/03/29 14:12:34;;;;;;;0.43;0.32;;;;;;;;;;5033092;28;20032;-78
2023/03/29 14:15:02;;;;;;;0.20;0.10;;;;;;;;;;5033898;28;20484;-78
2023/03/29 14:17:28;;;;;;;0.22;0.13;;;;;;;;;;5017057;28;20070;-78
2023/03/29 14:19:56;;;;;;;0.20;0.13;;;;;;;;;;5037981;28;20029;-78
2023/03/29 14:22:22;;;;;;;1.85;0.77;;;;;;;;;;5021400;28;20056;-78
2023/03/29 14:24:53;;;;;;;0.20;0.13;;;;;;;;;;5033798;28;20080;-78
2023/03/29 14:27:20;;;;;;;0.20;0.17;;;;;;;;;;5024313;28;20040;-79
2023/03/29 14:29:47;;;;;;;0.30;0.10;;;;;;;;;;5032456;28;21774;-78
2023/03/29 14:32:15;;;;;;;0.40;0.30;;;;;;;;;;5036779;28;20052;-78
2023/03/29 14:34:41;;;;;;;1.38;0.25;;;;;;;;;;5030566;28;20037;-78
2023/03/29 14:37:16;;;;;;;0.25;0.25;;;;;;;;;;5014809;28;20037;-78
2023/03/29 14:39:43;;;;;;;0.20;0.20;;;;;;;;;;5023197;28;20643;-77
2023/03/29 14:42:19;;;;;;;0.45;0.45;;;;;;;;;;5030599;28;20076;-78
2023/03/29 14:44:46;;;;;;;0.65;0.30;;;;;;;;;;5011469;28;20114;-78
2023/03/29 14:47:18;;;;;;;0.20;0.13;;;;;;;;;;5018251;28;20456;-80
2023/03/29 14:49:44;;;;;;;0.20;0.10;;;;;;;;;;5018127;28;20481;-78
2023/03/29 14:52:12;;;;;;;1.00;0.40;;;;;;;;;;5038314;28;20043;-77
2023/03/29 14:54:39;;;;;;;0.20;0.10;;;;;;;;;;5043061;28;20063;-79